sensor_id;sensor_type;location;lat;lon;timestamp;P1;durP1;ratioP1;P2;durP2;ratioP2
22711;SDS011;11523;50.390;8.072;2023-06-14T03:51:43;8.57;;;6.82;;
22711;SDS011;11523;50.390;8.072;2023-06-14T03:54:16;14.20;;;7.35;;
22711;SDS011;11523;50.390;8.072;2023-06-14T03:56:42;9.98;;;6.55;;
22711;SDS011;11523;50.390;8.072;2023-06-14T03:59:07;9.35;;;6.55;;
22711;SDS011;11523;50.390;8.072;2023-06-14T04:01:33;8.25;;;6.47;;
22711;SDS011;11523;50.390;8.072;2023-06-14T04:03:59;8.75;;;6.57;;
22711;SDS011;11523;50.390;8.072;2023-06-14T04:06:26;9.80;;;6.55;;
22711;SDS011;11523;50.390;8.072;2023-06-14T04:08:57;10.25;;;6.07;;
22711;SDS011;11523;50.390;8.072;2023-06-14T04:11:26;6.93;;;6.22;;
22711;SDS011;11523;50.390;8.072;2023-06-14T04:13:52;10.10;;;6.35;;
22711;SDS011;11523;50.390;8.072;2023-06-14T04:16:18;8.18;;;6.25;;
22711;SDS011;11523;50.390;8.072;2023-06-14T04:18:44;9.15;;;6.68;;
22711;SDS011;11523;50.390;8.072;2023-06-14T04:21:11;11.57;;;6.60;;
22711;SDS011;11523;50.390;8.072;2023-06-14T04:23:37;8.23;;;6.43;;
22711;SDS011;11523;50.390;8.072;2023-06-14T04:26:03;8.25;;;6.18;;
22711;SDS011;11523;50.390;8.072;2023-06-14T04:28:29;7.50;;;6.65;;
22711;SDS011;11523;50.390;8.072;2023-06-14T04:30:55;7.22;;;6.53;;
22711;SDS011;11523;50.390;8.072;2023-06-14T04:33:21;8.32;;;6.95;;
22711;SDS011;11523;50.390;8.072;2023-06-14T04:35:50;8.32;;;6.65;;
22711;SDS011;11523;50.390;8.072;2023-06-14T04:38:18;9.95;;;6.60;;
22711;SDS011;11523;50.390;8.072;2023-06-14T04:40:49;8.63;;;6.68;;
22711;SDS011;11523;50.390;8.072;2023-06-14T04:43:17;11.20;;;6.40;;
22711;SDS011;11523;50.390;8.072;2023-06-14T04:45:52;9.38;;;6.35;;
22711;SDS011;11523;50.390;8.072;2023-06-14T04:48:19;12.02;;;6.55;;
22711;SDS011;11523;50.390;8.072;2023-06-14T04:50:45;7.70;;;6.03;;
22711;SDS011;11523;50.390;8.072;2023-06-14T04:53:11;8.55;;;6.80;;
22711;SDS011;11523;50.390;8.072;2023-06-14T04:55:37;11.38;;;6.40;;
22711;SDS011;11523;50.390;8.072;2023-06-14T04:58:03;11.00;;;7.07;;
22711;SDS011;11523;50.390;8.072;2023-06-14T05:00:29;10.75;;;6.30;;
22711;SDS011;11523;50.390;8.072;2023-06-14T05:02:56;7.10;;;6.40;;
22711;SDS011;11523;50.390;8.072;2023-06-14T05:05:22;12.38;;;6.43;;
22711;SDS011;11523;50.390;8.072;2023-06-14T05:07:49;7.75;;;6.70;;
22711;SDS011;11523;50.390;8.072;2023-06-14T05:10:15;11.23;;;6.80;;
22711;SDS011;11523;50.390;8.072;2023-06-14T05:12:41;8.65;;;7.05;;
22711;SDS011;11523;50.390;8.072;2023-06-14T05:15:08;10.05;;;6.63;;
22711;SDS011;11523;50.390;8.072;2023-06-14T05:17:34;11.30;;;6.82;;
22711;SDS011;11523;50.390;8.072;2023-06-14T05:20:01;8.32;;;6.60;;
22711;SDS011;11523;50.390;8.072;2023-06-14T05:22:27;11.05;;;7.03;;
22711;SDS011;11523;50.390;8.072;2023-06-14T05:24:53;11.32;;;6.82;;
22711;SDS011;11523;50.390;8.072;2023-06-14T05:27:18;11.48;;;6.88;;
22711;SDS011;11523;50.390;8.072;2023-06-14T05:29:44;9.98;;;6.80;;
22711;SDS011;11523;50.390;8.072;2023-06-14T05:32:10;12.93;;;7.15;;
22711;SDS011;11523;50.390;8.072;2023-06-14T05:34:36;10.85;;;7.15;;
22711;SDS011;11523;50.390;8.072;2023-06-14T05:37:02;9.35;;;6.05;;
22711;SDS011;11523;50.390;8.072;2023-06-14T05:39:29;9.35;;;5.95;;
22711;SDS011;11523;50.390;8.072;2023-06-14T05:41:55;13.45;;;5.75;;
22711;SDS011;11523;50.390;8.072;2023-06-14T05:44:21;11.13;;;5.70;;
22711;SDS011;11523;50.390;8.072;2023-06-14T05:46:47;6.13;;;5.53;;
22711;SDS011;11523;50.390;8.072;2023-06-14T05:49:13;6.65;;;5.03;;
22711;SDS011;11523;50.390;8.072;2023-06-14T05:51:39;6.40;;;5.20;;
22711;SDS011;11523;50.390;8.072;2023-06-14T05:54:04;10.43;;;4.97;;
22711;SDS011;11523;50.390;8.072;2023-06-14T05:56:30;7.78;;;5.15;;
22711;SDS011;11523;50.390;8.072;2023-06-14T05:58:56;11.65;;;4.93;;
22711;SDS011;11523;50.390;8.072;2023-06-14T06:01:22;11.43;;;5.03;;
22711;SDS011;11523;50.390;8.072;2023-06-14T06:03:48;7.60;;;4.90;;
22711;SDS011;11523;50.390;8.072;2023-06-14T06:06:14;8.18;;;4.85;;
22711;SDS011;11523;50.390;8.072;2023-06-14T06:08:41;9.77;;;4.45;;
22711;SDS011;11523;50.390;8.072;2023-06-14T06:11:07;5.88;;;4.30;;
22711;SDS011;11523;50.390;8.072;2023-06-14T06:13:33;8.05;;;4.13;;
22711;SDS011;11523;50.390;8.072;2023-06-14T06:16:00;9.77;;;4.50;;
22711;SDS011;11523;50.390;8.072;2023-06-14T06:18:26;6.93;;;4.22;;
22711;SDS011;11523;50.390;8.072;2023-06-14T06:20:52;6.13;;;4.07;;
22711;SDS011;11523;50.390;8.072;2023-06-14T06:23:18;7.00;;;4.47;;
22711;SDS011;11523;50.390;8.072;2023-06-14T06:25:44;6.45;;;4.38;;
22711;SDS011;11523;50.390;8.072;2023-06-14T06:28:10;6.18;;;4.13;;
22711;SDS011;11523;50.390;8.072;2023-06-14T06:30:36;6.57;;;4.07;;
22711;SDS011;11523;50.390;8.072;2023-06-14T06:33:02;5.95;;;4.22;;
22711;SDS011;11523;50.390;8.072;2023-06-14T06:35:28;7.45;;;4.32;;
22711;SDS011;11523;50.390;8.072;2023-06-14T06:37:55;8.82;;;4.40;;
22711;SDS011;11523;50.390;8.072;2023-06-14T06:40:22;8.38;;;4.38;;
22711;SDS011;11523;50.390;8.072;2023-06-14T06:42:48;5.75;;;4.13;;
22711;SDS011;11523;50.390;8.072;2023-06-14T06:45:15;8.70;;;4.25;;
22711;SDS011;11523;50.390;8.072;2023-06-14T06:47:41;6.75;;;4.20;;
22711;SDS011;11523;50.390;8.072;2023-06-14T06:50:07;5.65;;;3.90;;
22711;SDS011;11523;50.390;8.072;2023-06-14T06:52:33;6.50;;;4.10;;
22711;SDS011;11523;50.390;8.072;2023-06-14T06:55:00;4.35;;;3.65;;
22711;SDS011;11523;50.390;8.072;2023-06-14T06:57:27;5.28;;;3.88;;
22711;SDS011;11523;50.390;8.072;2023-06-14T06:59:54;4.78;;;3.90;;
22711;SDS011;11523;50.390;8.072;2023-06-14T07:02:20;5.55;;;4.00;;
22711;SDS011;11523;50.390;8.072;2023-06-14T07:04:46;5.63;;;3.60;;
22711;SDS011;11523;50.390;8.072;2023-06-14T07:07:12;6.43;;;3.60;;
22711;SDS011;11523;50.390;8.072;2023-06-14T07:09:38;5.38;;;3.17;;
22711;SDS011;11523;50.390;8.072;2023-06-14T07:12:04;5.20;;;3.13;;
22711;SDS011;11523;50.390;8.072;2023-06-14T07:14:30;5.85;;;3.20;;
22711;SDS011;11523;50.390;8.072;2023-06-14T07:16:56;6.97;;;3.80;;
22711;SDS011;11523;50.390;8.072;2023-06-14T07:19:22;6.05;;;3.60;;
22711;SDS011;11523;50.390;8.072;2023-06-14T07:21:47;8.32;;;3.50;;
22711;SDS011;11523;50.390;8.072;2023-06-14T07:24:14;5.70;;;3.05;;
22711;SDS011;11523;50.390;8.072;2023-06-14T07:26:40;3.95;;;3.10;;
22711;SDS011;11523;50.390;8.072;2023-06-14T07:29:06;8.43;;;2.90;;
22711;SDS011;11523;50.390;8.072;2023-06-14T07:31:32;5.20;;;2.95;;
22711;SDS011;11523;50.390;8.072;2023-06-14T07:33:58;7.25;;;3.60;;
22711;SDS011;11523;50.390;8.072;2023-06-14T07:36:24;3.75;;;3.10;;
22711;SDS011;11523;50.390;8.072;2023-06-14T07:38:50;5.50;;;3.35;;
22711;SDS011;11523;50.390;8.072;2023-06-14T07:41:16;7.47;;;3.00;;
22711;SDS011;11523;50.390;8.072;2023-06-14T07:43:42;4.32;;;2.90;;
22711;SDS011;11523;50.390;8.072;2023-06-14T07:46:08;7.90;;;3.08;;
22711;SDS011;11523;50.390;8.072;2023-06-14T07:48:34;5.32;;;2.80;;
22711;SDS011;11523;50.390;8.072;2023-06-14T07:51:00;9.52;;;3.17;;
22711;SDS011;11523;50.390;8.072;2023-06-14T07:53:26;3.55;;;3.10;;
22711;SDS011;11523;50.390;8.072;2023-06-14T07:55:52;8.27;;;3.08;;
22711;SDS011;11523;50.390;8.072;2023-06-14T07:58:18;6.05;;;2.88;;
22711;SDS011;11523;50.390;8.072;2023-06-14T08:00:44;6.10;;;2.47;;
22711;SDS011;11523;50.390;8.072;2023-06-14T08:03:11;3.42;;;2.78;;
22711;SDS011;11523;50.390;8.072;2023-06-14T08:05:37;7.95;;;3.08;;
22711;SDS011;11523;50.390;8.072;2023-06-14T08:08:03;4.07;;;2.70;;
22711;SDS011;11523;50.390;8.072;2023-06-14T08:10:29;4.55;;;2.80;;
22711;SDS011;11523;50.390;8.072;2023-06-14T08:12:54;3.95;;;2.58;;
22711;SDS011;11523;50.390;8.072;2023-06-14T08:15:20;3.38;;;2.53;;
22711;SDS011;11523;50.390;8.072;2023-06-14T08:17:46;8.32;;;2.63;;
22711;SDS011;11523;50.390;8.072;2023-06-14T08:20:12;4.30;;;2.60;;
22711;SDS011;11523;50.390;8.072;2023-06-14T08:22:41;3.17;;;2.38;;
22711;SDS011;11523;50.390;8.072;2023-06-14T08:25:07;5.00;;;2.85;;
22711;SDS011;11523;50.390;8.072;2023-06-14T08:27:33;3.80;;;2.60;;
22711;SDS011;11523;50.390;8.072;2023-06-14T08:29:59;6.38;;;3.13;;
22711;SDS011;11523;50.390;8.072;2023-06-14T08:32:27;5.72;;;3.08;;
22711;SDS011;11523;50.390;8.072;2023-06-14T08:34:53;7.15;;;3.08;;
22711;SDS011;11523;50.390;8.072;2023-06-14T08:37:19;3.45;;;2.47;;
22711;SDS011;11523;50.390;8.072;2023-06-14T08:39:45;4.05;;;2.72;;
22711;SDS011;11523;50.390;8.072;2023-06-14T08:42:11;3.60;;;2.83;;
22711;SDS011;11523;50.390;8.072;2023-06-14T08:44:38;4.18;;;2.92;;
22711;SDS011;11523;50.390;8.072;2023-06-14T08:47:04;5.20;;;3.13;;
22711;SDS011;11523;50.390;8.072;2023-06-14T08:49:31;8.57;;;3.10;;
22711;SDS011;11523;50.390;8.072;2023-06-14T08:51:58;8.55;;;3.10;;
22711;SDS011;11523;50.390;8.072;2023-06-14T08:54:28;3.63;;;2.80;;
22711;SDS011;11523;50.390;8.072;2023-06-14T08:57:00;2.13;;;1.92;;
22711;SDS011;11523;50.390;8.072;2023-06-14T08:59:26;4.72;;;2.75;;
22711;SDS011;11523;50.390;8.072;2023-06-14T09:01:53;2.42;;;2.08;;
22711;SDS011;11523;50.390;8.072;2023-06-14T09:04:22;7.85;;;2.42;;
22711;SDS011;11523;50.390;8.072;2023-06-14T09:06:50;3.55;;;2.10;;
22711;SDS011;11523;50.390;8.072;2023-06-14T09:09:24;2.53;;;2.00;;
22711;SDS011;11523;50.390;8.072;2023-06-14T09:11:51;2.33;;;2.10;;
22711;SDS011;11523;50.390;8.072;2023-06-14T09:14:21;2.42;;;2.00;;
22711;SDS011;11523;50.390;8.072;2023-06-14T09:16:47;4.78;;;2.20;;
22711;SDS011;11523;50.390;8.072;2023-06-14T09:19:25;2.72;;;1.88;;
22711;SDS011;11523;50.390;8.072;2023-06-14T09:21:52;2.35;;;2.03;;
22711;SDS011;11523;50.390;8.072;2023-06-14T09:24:18;2.70;;;2.05;;
22711;SDS011;11523;50.390;8.072;2023-06-14T09:26:48;5.72;;;2.05;;
22711;SDS011;11523;50.390;8.072;2023-06-14T09:29:16;3.85;;;2.05;;
22711;SDS011;11523;50.390;8.072;2023-06-14T09:31:42;4.28;;;2.15;;
22711;SDS011;11523;50.390;8.072;2023-06-14T09:34:08;5.53;;;2.05;;
22711;SDS011;11523;50.390;8.072;2023-06-14T09:36:34;3.40;;;2.28;;
22711;SDS011;11523;50.390;8.072;2023-06-14T09:39:02;4.78;;;2.42;;
22711;SDS011;11523;50.390;8.072;2023-06-14T09:41:33;4.40;;;2.35;;
22711;SDS011;11523;50.390;8.072;2023-06-14T09:43:59;4.10;;;2.17;;
22711;SDS011;11523;50.390;8.072;2023-06-14T09:46:27;10.27;;;2.22;;
22711;SDS011;11523;50.390;8.072;2023-06-14T09:48:54;5.22;;;2.03;;
22711;SDS011;11523;50.390;8.072;2023-06-14T09:51:20;3.38;;;2.47;;
22711;SDS011;11523;50.390;8.072;2023-06-14T09:53:58;4.00;;;2.22;;
22711;SDS011;11523;50.390;8.072;2023-06-14T09:56:29;3.10;;;2.17;;
22711;SDS011;11523;50.390;8.072;2023-06-14T09:58:56;2.22;;;2.03;;
22711;SDS011;11523;50.390;8.072;2023-06-14T10:01:26;4.15;;;2.10;;
22711;SDS011;11523;50.390;8.072;2023-06-14T10:03:55;4.43;;;1.98;;
22711;SDS011;11523;50.390;8.072;2023-06-14T10:06:22;3.80;;;2.10;;
22711;SDS011;11523;50.390;8.072;2023-06-14T10:08:49;2.72;;;2.00;;
22711;SDS011;11523;50.390;8.072;2023-06-14T10:11:16;3.95;;;1.92;;
22711;SDS011;11523;50.390;8.072;2023-06-14T10:13:42;3.55;;;2.22;;
22711;SDS011;11523;50.390;8.072;2023-06-14T10:21:33;4.97;;;2.25;;
22711;SDS011;11523;50.390;8.072;2023-06-14T10:24:03;3.10;;;2.17;;
22711;SDS011;11523;50.390;8.072;2023-06-14T10:26:30;3.78;;;2.38;;
22711;SDS011;11523;50.390;8.072;2023-06-14T10:28:57;3.92;;;2.22;;
22711;SDS011;11523;50.390;8.072;2023-06-14T10:31:39;3.72;;;2.15;;
22711;SDS011;11523;50.390;8.072;2023-06-14T10:34:06;5.03;;;2.40;;
22711;SDS011;11523;50.390;8.072;2023-06-14T10:36:32;4.55;;;2.55;;
22711;SDS011;11523;50.390;8.072;2023-06-14T10:39:16;3.78;;;2.22;;
22711;SDS011;11523;50.390;8.072;2023-06-14T10:41:49;4.22;;;2.47;;
22711;SDS011;11523;50.390;8.072;2023-06-14T10:46:54;5.97;;;2.38;;
22711;SDS011;11523;50.390;8.072;2023-06-14T10:49:36;4.05;;;2.20;;
22711;SDS011;11523;50.390;8.072;2023-06-14T10:52:13;4.93;;;2.22;;
22711;SDS011;11523;50.390;8.072;2023-06-14T10:54:58;3.85;;;2.70;;
22711;SDS011;11523;50.390;8.072;2023-06-14T10:57:32;4.60;;;2.72;;
22711;SDS011;11523;50.390;8.072;2023-06-14T10:59:59;2.92;;;2.63;;
22711;SDS011;11523;50.390;8.072;2023-06-14T11:12:49;3.00;;;2.70;;
22711;SDS011;11523;50.390;8.072;2023-06-14T11:15:16;5.03;;;3.13;;
22711;SDS011;11523;50.390;8.072;2023-06-14T11:17:49;3.38;;;2.70;;
22711;SDS011;11523;50.390;8.072;2023-06-14T11:20:18;4.82;;;3.35;;
22711;SDS011;11523;50.390;8.072;2023-06-14T11:22:44;9.18;;;2.75;;
22711;SDS011;11523;50.390;8.072;2023-06-14T11:25:11;3.95;;;2.78;;
22711;SDS011;11523;50.390;8.072;2023-06-14T11:27:37;5.60;;;2.83;;
22711;SDS011;11523;50.390;8.072;2023-06-14T11:30:03;4.97;;;2.63;;
22711;SDS011;11523;50.390;8.072;2023-06-14T11:32:32;3.85;;;2.53;;
22711;SDS011;11523;50.390;8.072;2023-06-14T11:34:58;4.05;;;2.58;;
22711;SDS011;11523;50.390;8.072;2023-06-14T11:37:25;4.93;;;3.00;;
22711;SDS011;11523;50.390;8.072;2023-06-14T11:39:51;4.72;;;2.60;;
22711;SDS011;11523;50.390;8.072;2023-06-14T11:42:17;3.45;;;2.65;;
22711;SDS011;11523;50.390;8.072;2023-06-14T11:44:46;2.97;;;2.42;;
22711;SDS011;11523;50.390;8.072;2023-06-14T11:47:12;3.55;;;2.33;;
22711;SDS011;11523;50.390;8.072;2023-06-14T11:49:38;4.63;;;2.42;;
22711;SDS011;11523;50.390;8.072;2023-06-14T11:52:11;6.05;;;2.75;;
22711;SDS011;11523;50.390;8.072;2023-06-14T11:54:43;3.92;;;2.45;;
22711;SDS011;11523;50.390;8.072;2023-06-14T11:57:09;23.65;;;4.55;;
22711;SDS011;11523;50.390;8.072;2023-06-14T11:59:39;14.82;;;3.30;;
22711;SDS011;11523;50.390;8.072;2023-06-14T12:02:05;5.75;;;2.80;;
22711;SDS011;11523;50.390;8.072;2023-06-14T12:04:31;10.27;;;2.70;;
22711;SDS011;11523;50.390;8.072;2023-06-14T12:07:08;8.18;;;2.80;;
22711;SDS011;11523;50.390;8.072;2023-06-14T12:09:39;3.55;;;2.22;;
22711;SDS011;11523;50.390;8.072;2023-06-14T12:12:06;2.80;;;2.40;;
22711;SDS011;11523;50.390;8.072;2023-06-14T12:14:32;3.00;;;2.35;;
22711;SDS011;11523;50.390;8.072;2023-06-14T12:17:04;3.10;;;2.40;;
22711;SDS011;11523;50.390;8.072;2023-06-14T12:19:31;4.47;;;2.50;;
22711;SDS011;11523;50.390;8.072;2023-06-14T12:21:59;2.47;;;2.28;;
22711;SDS011;11523;50.390;8.072;2023-06-14T12:24:29;4.60;;;2.40;;
22711;SDS011;11523;50.390;8.072;2023-06-14T12:26:59;2.55;;;2.10;;
22711;SDS011;11523;50.390;8.072;2023-06-14T12:29:25;3.00;;;2.30;;
22711;SDS011;11523;50.390;8.072;2023-06-14T12:31:51;3.53;;;2.10;;
22711;SDS011;11523;50.390;8.072;2023-06-14T12:34:19;5.63;;;2.53;;
22711;SDS011;11523;50.390;8.072;2023-06-14T12:36:45;4.70;;;2.70;;
22711;SDS011;11523;50.390;8.072;2023-06-14T12:39:11;2.75;;;2.55;;
22711;SDS011;11523;50.390;8.072;2023-06-14T12:41:37;2.65;;;2.40;;
22711;SDS011;11523;50.390;8.072;2023-06-14T12:44:06;3.38;;;2.25;;
22711;SDS011;11523;50.390;8.072;2023-06-14T12:46:32;4.30;;;2.67;;
22711;SDS011;11523;50.390;8.072;2023-06-14T12:48:58;4.45;;;2.70;;
22711;SDS011;11523;50.390;8.072;2023-06-14T12:51:24;2.47;;;1.98;;
22711;SDS011;11523;50.390;8.072;2023-06-14T12:53:50;5.13;;;2.58;;
22711;SDS011;11523;50.390;8.072;2023-06-14T12:56:16;3.50;;;2.33;;
22711;SDS011;11523;50.390;8.072;2023-06-14T12:58:42;2.90;;;2.30;;
22711;SDS011;11523;50.390;8.072;2023-06-14T13:01:08;4.40;;;2.40;;
22711;SDS011;11523;50.390;8.072;2023-06-14T13:03:34;2.92;;;2.40;;
22711;SDS011;11523;50.390;8.072;2023-06-14T13:06:00;3.90;;;2.45;;
22711;SDS011;11523;50.390;8.072;2023-06-14T13:08:27;5.15;;;2.40;;
22711;SDS011;11523;50.390;8.072;2023-06-14T13:10:53;2.30;;;2.10;;
22711;SDS011;11523;50.390;8.072;2023-06-14T13:13:19;4.13;;;2.63;;
22711;SDS011;11523;50.390;8.072;2023-06-14T13:15:45;3.30;;;2.35;;
22711;SDS011;11523;50.390;8.072;2023-06-14T13:18:11;5.18;;;2.58;;
22711;SDS011;11523;50.390;8.072;2023-06-14T13:20:40;5.75;;;2.55;;
22711;SDS011;11523;50.390;8.072;2023-06-14T13:23:06;2.70;;;2.47;;
22711;SDS011;11523;50.390;8.072;2023-06-14T13:25:36;3.53;;;2.40;;
22711;SDS011;11523;50.390;8.072;2023-06-14T13:28:03;5.60;;;2.70;;
22711;SDS011;11523;50.390;8.072;2023-06-14T13:30:29;3.85;;;2.63;;
22711;SDS011;11523;50.390;8.072;2023-06-14T13:32:55;5.45;;;2.35;;
22711;SDS011;11523;50.390;8.072;2023-06-14T13:35:21;3.03;;;2.42;;
22711;SDS011;11523;50.390;8.072;2023-06-14T13:37:47;3.25;;;2.10;;
22711;SDS011;11523;50.390;8.072;2023-06-14T13:40:13;7.40;;;2.70;;
22711;SDS011;11523;50.390;8.072;2023-06-14T13:42:39;3.83;;;2.20;;
22711;SDS011;11523;50.390;8.072;2023-06-14T13:45:05;2.88;;;2.40;;
22711;SDS011;11523;50.390;8.072;2023-06-14T13:47:32;2.72;;;2.45;;
22711;SDS011;11523;50.390;8.072;2023-06-14T13:49:58;5.30;;;2.65;;
22711;SDS011;11523;50.390;8.072;2023-06-14T13:52:24;4.10;;;2.28;;
22711;SDS011;11523;50.390;8.072;2023-06-14T13:54:50;3.53;;;2.67;;
22711;SDS011;11523;50.390;8.072;2023-06-14T13:57:16;4.57;;;2.35;;
22711;SDS011;11523;50.390;8.072;2023-06-14T13:59:43;2.70;;;2.45;;
22711;SDS011;11523;50.390;8.072;2023-06-14T14:02:09;3.05;;;2.40;;
22711;SDS011;11523;50.390;8.072;2023-06-14T14:04:36;3.35;;;2.40;;
22711;SDS011;11523;50.390;8.072;2023-06-14T14:07:02;4.78;;;2.42;;
22711;SDS011;11523;50.390;8.072;2023-06-14T14:09:28;3.05;;;2.40;;
22711;SDS011;11523;50.390;8.072;2023-06-14T14:11:55;3.35;;;2.47;;
22711;SDS011;11523;50.390;8.072;2023-06-14T14:14:21;3.28;;;2.40;;
22711;SDS011;11523;50.390;8.072;2023-06-14T14:16:48;3.40;;;2.35;;
22711;SDS011;11523;50.390;8.072;2023-06-14T14:19:16;2.95;;;2.15;;
22711;SDS011;11523;50.390;8.072;2023-06-14T14:21:43;2.45;;;2.25;;
22711;SDS011;11523;50.390;8.072;2023-06-14T14:24:09;2.67;;;2.30;;
22711;SDS011;11523;50.390;8.072;2023-06-14T14:26:35;4.25;;;2.28;;
22711;SDS011;11523;50.390;8.072;2023-06-14T14:29:01;6.30;;;2.40;;
22711;SDS011;11523;50.390;8.072;2023-06-14T14:31:27;4.13;;;2.35;;
22711;SDS011;11523;50.390;8.072;2023-06-14T14:33:53;5.10;;;2.50;;
22711;SDS011;11523;50.390;8.072;2023-06-14T14:36:19;4.03;;;2.22;;
22711;SDS011;11523;50.390;8.072;2023-06-14T14:38:45;3.80;;;2.78;;
22711;SDS011;11523;50.390;8.072;2023-06-14T14:41:12;5.65;;;2.35;;
22711;SDS011;11523;50.390;8.072;2023-06-14T14:43:38;4.78;;;2.50;;
22711;SDS011;11523;50.390;8.072;2023-06-14T14:46:04;3.05;;;2.47;;
22711;SDS011;11523;50.390;8.072;2023-06-14T14:48:30;3.33;;;2.50;;
22711;SDS011;11523;50.390;8.072;2023-06-14T14:50:56;3.08;;;2.58;;
22711;SDS011;11523;50.390;8.072;2023-06-14T14:53:22;3.30;;;2.30;;
22711;SDS011;11523;50.390;8.072;2023-06-14T14:55:48;5.53;;;2.42;;
22711;SDS011;11523;50.390;8.072;2023-06-14T14:58:14;2.85;;;2.53;;
22711;SDS011;11523;50.390;8.072;2023-06-14T15:00:44;4.10;;;2.58;;
22711;SDS011;11523;50.390;8.072;2023-06-14T15:03:10;2.80;;;2.60;;
22711;SDS011;11523;50.390;8.072;2023-06-14T15:05:36;6.18;;;2.50;;
22711;SDS011;11523;50.390;8.072;2023-06-14T15:08:02;4.22;;;2.40;;
22711;SDS011;11523;50.390;8.072;2023-06-14T15:10:28;2.30;;;2.10;;
22711;SDS011;11523;50.390;8.072;2023-06-14T15:12:54;2.55;;;2.35;;
22711;SDS011;11523;50.390;8.072;2023-06-14T15:15:21;3.67;;;2.75;;
22711;SDS011;11523;50.390;8.072;2023-06-14T15:17:47;2.78;;;2.55;;
22711;SDS011;11523;50.390;8.072;2023-06-14T15:20:13;3.67;;;2.60;;
22711;SDS011;11523;50.390;8.072;2023-06-14T15:22:39;3.78;;;2.47;;
22711;SDS011;11523;50.390;8.072;2023-06-14T15:25:05;6.85;;;2.55;;
22711;SDS011;11523;50.390;8.072;2023-06-14T15:27:31;3.10;;;2.50;;
22711;SDS011;11523;50.390;8.072;2023-06-14T15:29:57;2.72;;;2.03;;
22711;SDS011;11523;50.390;8.072;2023-06-14T15:32:23;4.82;;;2.33;;
22711;SDS011;11523;50.390;8.072;2023-06-14T15:34:49;5.63;;;2.75;;
22711;SDS011;11523;50.390;8.072;2023-06-14T15:37:15;2.58;;;2.38;;
22711;SDS011;11523;50.390;8.072;2023-06-14T15:39:41;4.85;;;2.50;;
22711;SDS011;11523;50.390;8.072;2023-06-14T15:42:07;2.90;;;2.70;;
22711;SDS011;11523;50.390;8.072;2023-06-14T15:44:33;2.90;;;2.60;;
22711;SDS011;11523;50.390;8.072;2023-06-14T15:46:59;4.00;;;2.70;;
22711;SDS011;11523;50.390;8.072;2023-06-14T15:49:25;2.97;;;2.50;;
22711;SDS011;11523;50.390;8.072;2023-06-14T15:51:51;5.10;;;2.53;;
22711;SDS011;11523;50.390;8.072;2023-06-14T15:54:17;4.60;;;2.28;;
22711;SDS011;11523;50.390;8.072;2023-06-14T15:56:43;3.85;;;2.40;;
22711;SDS011;11523;50.390;8.072;2023-06-14T15:59:09;3.47;;;3.13;;
22711;SDS011;11523;50.390;8.072;2023-06-14T16:01:35;5.65;;;2.80;;
22711;SDS011;11523;50.390;8.072;2023-06-14T16:04:01;2.85;;;2.60;;
22711;SDS011;11523;50.390;8.072;2023-06-14T16:06:27;4.45;;;2.67;;
22711;SDS011;11523;50.390;8.072;2023-06-14T16:08:53;4.88;;;2.40;;
22711;SDS011;11523;50.390;8.072;2023-06-14T16:11:19;3.90;;;2.33;;
22711;SDS011;11523;50.390;8.072;2023-06-14T16:13:45;2.65;;;2.45;;
22711;SDS011;11523;50.390;8.072;2023-06-14T16:16:11;2.90;;;2.60;;
22711;SDS011;11523;50.390;8.072;2023-06-14T16:18:37;3.75;;;2.80;;
22711;SDS011;11523;50.390;8.072;2023-06-14T16:21:03;4.55;;;2.67;;
22711;SDS011;11523;50.390;8.072;2023-06-14T16:23:31;4.07;;;2.70;;
22711;SDS011;11523;50.390;8.072;2023-06-14T16:25:57;3.15;;;2.63;;
22711;SDS011;11523;50.390;8.072;2023-06-14T16:28:23;3.45;;;2.45;;
22711;SDS011;11523;50.390;8.072;2023-06-14T16:30:49;4.43;;;2.70;;
22711;SDS011;11523;50.390;8.072;2023-06-14T16:33:15;3.53;;;2.40;;
22711;SDS011;11523;50.390;8.072;2023-06-14T16:35:41;4.53;;;2.88;;
22711;SDS011;11523;50.390;8.072;2023-06-14T16:38:07;7.13;;;5.75;;
22711;SDS011;11523;50.390;8.072;2023-06-14T16:40:33;4.47;;;2.70;;
22711;SDS011;11523;50.390;8.072;2023-06-14T16:42:59;2.92;;;2.50;;
22711;SDS011;11523;50.390;8.072;2023-06-14T16:45:25;5.45;;;5.05;;
22711;SDS011;11523;50.390;8.072;2023-06-14T16:47:51;8.68;;;7.25;;
22711;SDS011;11523;50.390;8.072;2023-06-14T16:50:17;3.33;;;2.70;;
22711;SDS011;11523;50.390;8.072;2023-06-14T16:52:43;3.97;;;3.67;;
22711;SDS011;11523;50.390;8.072;2023-06-14T16:55:09;5.50;;;4.00;;
22711;SDS011;11523;50.390;8.072;2023-06-14T16:57:35;9.02;;;3.05;;
22711;SDS011;11523;50.390;8.072;2023-06-14T17:00:01;3.47;;;2.70;;
22711;SDS011;11523;50.390;8.072;2023-06-14T17:02:28;3.28;;;2.88;;
22711;SDS011;11523;50.390;8.072;2023-06-14T17:04:54;3.70;;;2.88;;
22711;SDS011;11523;50.390;8.072;2023-06-14T17:07:20;3.35;;;2.72;;
22711;SDS011;11523;50.390;8.072;2023-06-14T17:09:46;3.63;;;2.90;;
22711;SDS011;11523;50.390;8.072;2023-06-14T17:12:12;4.03;;;2.45;;
22711;SDS011;11523;50.390;8.072;2023-06-14T17:14:38;2.75;;;2.55;;
22711;SDS011;11523;50.390;8.072;2023-06-14T17:17:04;3.20;;;2.88;;
22711;SDS011;11523;50.390;8.072;2023-06-14T17:24:51;3.90;;;3.10;;
22711;SDS011;11523;50.390;8.072;2023-06-14T17:27:18;3.10;;;2.80;;
22711;SDS011;11523;50.390;8.072;2023-06-14T17:29:44;2.80;;;2.60;;
22711;SDS011;11523;50.390;8.072;2023-06-14T17:32:10;4.93;;;2.92;;
22711;SDS011;11523;50.390;8.072;2023-06-14T17:34:36;2.88;;;2.63;;
22711;SDS011;11523;50.390;8.072;2023-06-14T17:37:02;3.10;;;2.80;;
22711;SDS011;11523;50.390;8.072;2023-06-14T17:39:28;2.65;;;2.45;;
22711;SDS011;11523;50.390;8.072;2023-06-14T17:41:54;3.78;;;3.00;;
22711;SDS011;11523;50.390;8.072;2023-06-14T17:44:20;4.13;;;2.90;;
22711;SDS011;11523;50.390;8.072;2023-06-14T17:46:46;7.03;;;2.75;;
22711;SDS011;11523;50.390;8.072;2023-06-14T17:49:12;4.20;;;2.65;;
22711;SDS011;11523;50.390;8.072;2023-06-14T17:51:54;5.68;;;3.08;;
22711;SDS011;11523;50.390;8.072;2023-06-14T17:54:20;2.97;;;2.78;;
22711;SDS011;11523;50.390;8.072;2023-06-14T17:56:46;2.67;;;2.47;;
22711;SDS011;11523;50.390;8.072;2023-06-14T17:59:12;3.83;;;2.60;;
22711;SDS011;11523;50.390;8.072;2023-06-14T18:01:38;3.75;;;2.70;;
22711;SDS011;11523;50.390;8.072;2023-06-14T18:04:04;3.72;;;2.70;;
22711;SDS011;11523;50.390;8.072;2023-06-14T18:06:30;7.75;;;3.20;;
22711;SDS011;11523;50.390;8.072;2023-06-14T18:08:56;2.78;;;2.58;;
22711;SDS011;11523;50.390;8.072;2023-06-14T18:11:22;4.05;;;2.60;;
22711;SDS011;11523;50.390;8.072;2023-06-14T18:13:50;2.63;;;2.42;;
22711;SDS011;11523;50.390;8.072;2023-06-14T18:16:17;2.70;;;2.50;;
22711;SDS011;11523;50.390;8.072;2023-06-14T18:18:45;4.72;;;3.00;;
22711;SDS011;11523;50.390;8.072;2023-06-14T18:21:11;4.40;;;2.97;;
22711;SDS011;11523;50.390;8.072;2023-06-14T18:23:37;3.35;;;2.60;;
22711;SDS011;11523;50.390;8.072;2023-06-14T18:26:02;5.97;;;2.75;;
22711;SDS011;11523;50.390;8.072;2023-06-14T18:28:28;3.35;;;2.85;;
22711;SDS011;11523;50.390;8.072;2023-06-14T18:30:54;2.90;;;2.70;;
22711;SDS011;11523;50.390;8.072;2023-06-14T18:33:20;5.97;;;2.95;;
22711;SDS011;11523;50.390;8.072;2023-06-14T18:35:46;5.28;;;2.88;;
22711;SDS011;11523;50.390;8.072;2023-06-14T18:38:12;6.15;;;3.10;;
22711;SDS011;11523;50.390;8.072;2023-06-14T18:40:38;3.13;;;2.80;;
22711;SDS011;11523;50.390;8.072;2023-06-14T18:43:04;3.85;;;3.10;;
22711;SDS011;11523;50.390;8.072;2023-06-14T18:45:30;4.45;;;3.00;;
22711;SDS011;11523;50.390;8.072;2023-06-14T18:48:00;3.20;;;2.90;;
22711;SDS011;11523;50.390;8.072;2023-06-14T18:50:26;5.40;;;2.78;;
22711;SDS011;11523;50.390;8.072;2023-06-14T18:52:52;3.40;;;3.00;;
22711;SDS011;11523;50.390;8.072;2023-06-14T18:55:18;4.25;;;2.90;;
22711;SDS011;11523;50.390;8.072;2023-06-14T18:57:45;6.40;;;2.92;;